Time;durP1;ratioP1;P1;durP2;ratioP2;P2;SDS_P1;SDS_P2;PMS_P1;PMS_P2;Temp;Humidity;BMP_temperature;BMP_pressure;BME280_temperature;BME280_humidity;BME280_pressure;Samples;Min_cycle;Max_cycle;Signal;HPM_P1;HPM_P2
2021/03/29 00:00:18;;;;;;;25.65;10.30;;;;;;;9.13;53.38;101513.94;5051692;27;100928;-75
2021/03/29 00:02:45;;;;;;;24.05;10.23;;;;;;;9.17;53.63;101523.53;5042110;27;100880;-76
2021/03/29 00:05:12;;;;;;;25.35;10.63;;;;;;;9.25;53.36;101510.31;5051691;27;97359;-75
2021/03/29 00:07:38;;;;;;;26.02;10.68;;;;;;;9.28;53.78;101505.94;5028989;27;96881;-75
2021/03/29 00:10:06;;;;;;;21.70;10.23;;;;;;;9.25;53.46;101510.31;5075092;27;98093;-82
2021/03/29 00:12:34;;;;;;;20.08;9.90;;;;;;;9.22;53.86;101492.03;5075484;27;97823;-74
2021/03/29 00:15:02;;;;;;;28.58;11.13;;;;;;;9.27;53.87;101498.94;5045051;27;96914;-74
2021/03/29 00:17:28;;;;;;;23.48;10.80;;;;;;;9.27;53.94;101504.19;5037604;27;96800;-74
2021/03/29 00:19:53;;;;;;;20.83;10.70;;;;;;;9.32;53.41;101501.53;5036079;27;101402;-75
2021/03/29 00:22:19;;;;;;;23.15;9.88;;;;;;;9.17;53.91;101504.31;5037741;27;101476;-76
2021/03/29 00:24:45;;;;;;;24.13;10.60;;;;;;;9.25;53.83;101505.09;5059154;27;96741;-75
2021/03/29 00:27:11;;;;;;;24.80;11.35;;;;;;;9.29;53.56;101502.44;5055210;27;96876;-75
2021/03/29 00:29:37;;;;;;;21.58;9.95;;;;;;;9.33;54.01;101508.50;5056280;27;100911;-75
2021/03/29 00:32:03;;;;;;;25.17;10.35;;;;;;;9.34;54.13;101504.13;5058446;27;101602;-80
2021/03/29 00:34:29;;;;;;;24.55;10.43;;;;;;;9.35;54.39;101513.75;5056576;27;96747;-75
2021/03/29 00:36:55;;;;;;;25.42;10.43;;;;;;;9.33;54.31;101515.50;5059242;27;97248;-75
2021/03/29 00:39:21;;;;;;;23.05;11.18;;;;;;;9.25;55.03;101518.19;5066122;27;101811;-75
2021/03/29 00:41:47;;;;;;;20.48;10.30;;;;;;;9.28;54.57;101510.34;5075748;27;97978;-75
2021/03/29 00:44:14;;;;;;;19.33;8.93;;;;;;;9.27;54.76;101511.19;5040486;27;96922;-75
2021/03/29 00:46:40;;;;;;;20.90;9.35;;;;;;;9.25;54.65;101515.56;5055250;27;97142;-75
2021/03/29 00:49:06;;;;;;;23.17;10.70;;;;;;;9.30;54.80;101506.78;5051717;27;100537;-80
2021/03/29 00:51:35;;;;;;;23.50;10.18;;;;;;;9.36;54.76;101507.63;5037838;27;101066;-74
2021/03/29 00:54:04;;;;;;;25.03;9.50;;;;;;;9.38;54.36;101517.19;5035057;27;96786;-80
2021/03/29 00:56:31;;;;;;;24.88;10.63;;;;;;;9.43;54.90;101514.53;5047271;27;96891;-74
2021/03/29 00:58:58;;;;;;;27.58;9.55;;;;;;;9.47;54.24;101504.00;5058387;27;98166;-75
2021/03/29 01:01:27;;;;;;;24.80;10.38;;;;;;;9.48;54.25;101512.72;5054286;27;97322;-75
2021/03/29 01:03:58;;;;;;;18.10;8.90;;;;;;;9.47;54.43;101511.00;5061761;27;96794;-76
2021/03/29 01:06:26;;;;;;;17.08;8.90;;;;;;;9.52;54.60;101499.56;5054368;27;97151;-75
2021/03/29 01:09:01;;;;;;;20.85;8.10;;;;;;;9.48;54.64;101504.84;5057934;27;98156;-75
2021/03/29 01:11:29;;;;;;;19.05;6.97;;;;;;;9.49;54.60;101493.50;5058147;27;100837;-75
2021/03/29 01:14:37;;;;;;;20.67;8.40;;;;;;;9.39;54.73;101487.47;5055544;27;96899;-74
2021/03/29 01:17:13;;;;;;;19.13;7.93;;;;;;;9.33;54.66;101491.91;5042574;27;96980;-74
2021/03/29 01:19:51;;;;;;;20.40;8.90;;;;;;;9.30;54.69;101485.81;5058681;27;98065;-75
2021/03/29 01:22:19;;;;;;;18.27;8.13;;;;;;;9.37;54.70;101486.66;5065713;27;97610;-75
2021/03/29 01:25:07;;;;;;;19.30;8.10;;;;;;;9.32;54.70;101487.56;5059916;27;96707;-75
2021/03/29 01:28:03;;;;;;;20.58;8.60;;;;;;;9.28;54.73;101490.22;5061920;27;96821;-74
2021/03/29 01:30:36;;;;;;;20.25;8.50;;;;;;;9.36;54.60;101473.53;5031702;27;101378;-75
2021/03/29 01:33:03;;;;;;;13.18;7.28;;;;;;;9.33;54.58;101476.19;5058430;27;97424;-74
2021/03/29 01:35:32;;;;;;;17.67;8.25;;;;;;;9.35;55.24;101472.69;5043420;27;96720;-75
2021/03/29 01:37:58;;;;;;;18.75;7.15;;;;;;;9.29;55.01;101470.13;5057339;27;96873;-74
2021/03/29 01:40:25;;;;;;;18.33;7.15;;;;;;;9.23;55.22;101472.81;5061069;27;97443;-75
2021/03/29 01:42:51;;;;;;;16.15;7.00;;;;;;;9.22;55.59;101468.44;5064801;27;98340;-75
2021/03/29 01:45:19;;;;;;;15.45;6.75;;;;;;;9.28;55.67;101474.50;5044014;27;97027;-75
2021/03/29 01:47:44;;;;;;;15.27;6.57;;;;;;;9.29;55.75;101467.50;5040714;27;96975;-75
2021/03/29 01:50:14;;;;;;;15.15;6.68;;;;;;;9.15;56.29;101459.78;5043524;27;101188;-75
2021/03/29 01:52:40;;;;;;;17.98;6.38;;;;;;;9.26;56.12;101465.78;5057725;27;101223;-74
2021/03/29 01:55:07;;;;;;;16.73;6.32;;;;;;;9.23;55.82;101462.34;5069138;27;96721;-80
2021/03/29 01:57:33;;;;;;;18.60;6.05;;;;;;;9.19;56.00;101463.22;5063395;27;97076;-74
2021/03/29 01:59:59;;;;;;;14.90;6.57;;;;;;;9.21;56.13;101458.84;5060217;27;101571;-75
2021/03/29 02:02:25;;;;;;;16.90;7.18;;;;;;;9.32;55.88;101466.63;5077402;27;97866;-75
2021/03/29 02:04:51;;;;;;;12.82;5.63;;;;;;;9.27;56.09;101458.78;5057985;27;96497;-75
2021/03/29 02:07:18;;;;;;;16.67;6.20;;;;;;;9.32;55.76;101459.63;5075219;27;96779;-75
2021/03/29 02:09:44;;;;;;;19.88;6.13;;;;;;;9.37;55.77;101464.81;5057475;27;101580;-75
2021/03/29 02:12:11;;;;;;;12.50;4.90;;;;;;;9.37;55.63;101460.44;5075522;27;98070;-79
2021/03/29 02:14:37;;;;;;;14.82;5.45;;;;;;;9.39;55.91;101460.41;5044592;27;97024;-75
2021/03/29 02:17:05;;;;;;;14.18;5.10;;;;;;;9.41;55.78;101459.50;5058605;27;97017;-75
2021/03/29 02:19:31;;;;;;;18.92;5.97;;;;;;;9.37;55.59;101460.44;5050842;27;99058;-75
2021/03/29 02:21:57;;;;;;;14.60;5.07;;;;;;;9.35;55.41;101456.97;5044081;27;101712;-75
2021/03/29 02:24:23;;;;;;;12.65;5.20;;;;;;;9.34;56.00;101456.97;5060359;27;96921;-75
2021/03/29 02:26:49;;;;;;;10.68;4.65;;;;;;;9.42;55.84;101458.63;5077581;27;96849;-75
2021/03/29 02:29:27;;;;;;;11.85;5.38;;;;;;;9.42;55.52;101460.38;5042687;27;101984;-75
2021/03/29 02:31:57;;;;;;;12.02;4.97;;;;;;;9.48;55.54;101463.81;5078199;27;97933;-75
2021/03/29 02:34:24;;;;;;;12.00;4.63;;;;;;;9.48;55.64;101458.56;5039309;27;96933;-75
2021/03/29 02:36:53;;;;;;;10.95;4.45;;;;;;;9.48;55.78;101463.81;5076785;27;97046;-77
2021/03/29 02:39:20;;;;;;;13.95;4.65;;;;;;;9.50;55.59;101459.41;5038009;27;101064;-75
2021/03/29 02:41:46;;;;;;;14.32;4.80;;;;;;;9.50;55.31;101461.16;5056296;27;101446;-75
2021/03/29 02:44:12;;;;;;;12.18;4.57;;;;;;;9.53;55.12;101456.75;5052854;27;96741;-78
2021/03/29 02:46:38;;;;;;;9.70;4.35;;;;;;;9.51;55.19;101452.41;5046923;27;97130;-75
2021/03/29 02:49:05;;;;;;;14.95;4.82;;;;;;;9.53;54.92;101454.13;5049714;27;101108;-75
2021/03/29 02:51:32;;;;;;;11.45;4.75;;;;;;;9.56;55.30;101454.97;5056320;27;98248;-75
2021/03/29 02:54:03;;;;;;;10.57;4.85;;;;;;;9.59;54.90;101445.31;5052579;27;97149;-75
2021/03/29 02:56:30;;;;;;;;;;;;;;;9.54;54.92;101452.41;5032248;27;97181;-75
2021/03/29 02:59:04;;;;;;;12.98;5.28;;;;;;;9.51;55.32;101448.06;5059317;27;97972;-75
2021/03/29 03:01:33;;;;;;;12.15;4.90;;;;;;;9.57;54.93;101451.47;5059495;27;99808;-75
2021/03/29 03:03:59;;;;;;;16.70;4.90;;;;;;;9.56;55.05;101450.59;5043174;27;96970;-75
2021/03/29 03:06:28;;;;;;;14.52;5.45;;;;;;;9.60;54.60;101449.69;5059977;27;96905;-75
2021/03/29 03:08:53;;;;;;;11.82;4.90;;;;;;;9.52;55.26;101456.78;5055614;27;98420;-75
2021/03/29 03:11:20;;;;;;;12.88;4.72;;;;;;;9.59;55.05;101458.44;5056378;27;97980;-75
2021/03/29 03:13:48;;;;;;;12.77;4.53;;;;;;;9.59;55.12;101457.56;5038819;27;97037;-75
2021/03/29 03:16:14;;;;;;;11.70;4.88;;;;;;;9.62;54.88;101461.00;5033997;27;96796;-75
2021/03/29 03:18:41;;;;;;;15.93;4.82;;;;;;;9.60;55.04;101462.81;5056227;27;101385;-75
2021/03/29 03:21:07;;;;;;;9.10;4.50;;;;;;;9.63;54.83;101461.88;5060209;27;98530;-74
2021/03/29 03:23:33;;;;;;;16.17;4.60;;;;;;;9.57;54.70;101462.84;5056056;27;96774;-75
2021/03/29 03:26:00;;;;;;;11.20;4.82;;;;;;;9.58;54.89;101453.22;5039500;27;97065;-75
2021/03/29 03:28:28;;;;;;;9.35;4.30;;;;;;;9.63;54.63;101461.88;5057265;27;101368;-75
2021/03/29 03:30:56;;;;;;;10.90;4.07;;;;;;;9.51;55.05;101463.78;5076560;27;98372;-75
2021/03/29 03:33:24;;;;;;;16.48;5.88;;;;;;;9.52;55.12;101455.03;5042341;27;96935;-75
2021/03/29 03:35:51;;;;;;;11.60;4.80;;;;;;;9.54;54.93;101457.63;5056366;27;97122;-75
2021/03/29 03:38:22;;;;;;;13.40;4.80;;;;;;;9.52;55.17;101455.03;5037107;27;100369;-74
2021/03/29 03:40:53;;;;;;;14.18;5.07;;;;;;;9.56;54.87;101455.84;5070764;27;97896;-75
2021/03/29 03:43:20;;;;;;;9.63;4.25;;;;;;;9.59;54.44;101452.31;5059027;27;96654;-75
2021/03/29 03:45:49;;;;;;;14.35;5.63;;;;;;;9.58;54.71;101454.06;5040389;27;97056;-75
2021/03/29 03:48:17;;;;;;;9.05;4.95;;;;;;;9.61;54.78;101450.56;5050574;27;97948;-75
2021/03/29 03:50:48;;;;;;;12.93;4.72;;;;;;;9.50;54.85;101448.91;5037514;27;99811;-75
2021/03/29 03:53:15;;;;;;;12.75;5.35;;;;;;;9.56;54.50;101445.34;5076407;27;96557;-81
2021/03/29 03:55:41;;;;;;;14.02;4.85;;;;;;;9.55;54.94;101453.25;5042812;27;96856;-75
2021/03/29 03:58:10;;;;;;;14.32;5.25;;;;;;;9.58;54.61;101456.69;5076612;27;98543;-75
2021/03/29 04:00:36;;;;;;;16.27;5.65;;;;;;;9.58;54.58;101459.31;5058203;27;101289;-75
2021/03/29 04:03:02;;;;;;;16.90;5.45;;;;;;;9.59;54.54;101460.19;5055376;27;97111;-75
2021/03/29 04:05:27;;;;;;;14.32;5.38;;;;;;;9.63;54.23;101462.75;5075435;27;97133;-75
2021/03/29 04:07:55;;;;;;;16.70;5.60;;;;;;;9.62;54.44;101452.28;5042027;27;101388;-75
2021/03/29 04:10:36;;;;;;;12.00;5.20;;;;;;;9.60;54.87;101462.81;5045051;27;97811;-75
2021/03/29 04:13:02;;;;;;;13.80;5.60;;;;;;;9.61;54.61;101467.16;5055824;27;97045;-75
2021/03/29 04:15:27;;;;;;;9.93;5.00;;;;;;;9.57;54.85;101464.56;5053414;27;96998;-75
2021/03/29 04:17:53;;;;;;;10.88;4.80;;;;;;;9.61;54.94;101476.78;5046962;27;99646;-75
2021/03/29 04:20:19;;;;;;;12.23;5.15;;;;;;;9.63;55.17;101470.63;5037945;27;101134;-75
2021/03/29 04:22:44;;;;;;;13.30;5.47;;;;;;;9.65;54.64;101463.59;5059024;27;97217;-74
2021/03/29 04:25:12;;;;;;;13.00;5.15;;;;;;;9.68;55.01;101473.19;5053939;27;97088;-74
2021/03/29 04:27:38;;;;;;;11.75;4.40;;;;;;;9.56;55.42;101468.09;5049151;27;101665;-75
2021/03/29 04:30:06;;;;;;;15.43;5.32;;;;;;;9.62;54.66;101468.88;5075478;27;97314;-75
2021/03/29 04:32:32;;;;;;;12.23;4.80;;;;;;;9.65;54.68;101466.22;5054444;27;96700;-75
2021/03/29 04:34:57;;;;;;;13.65;5.57;;;;;;;9.70;54.97;101468.78;5074886;27;96807;-75
2021/03/29 04:37:23;;;;;;;11.20;5.03;;;;;;;9.71;54.54;101465.28;5054525;27;98010;-75
2021/03/29 04:39:49;;;;;;;17.48;5.80;;;;;;;9.78;54.58;101464.31;5035928;27;101090;-74
2021/03/29 04:42:14;;;;;;;14.90;4.43;;;;;;;9.73;54.61;101461.75;5066214;27;96675;-81
2021/03/29 04:44:40;;;;;;;13.20;6.13;;;;;;;9.78;54.73;101466.09;5054913;27;97059;-75
2021/03/29 04:47:06;;;;;;;13.65;4.68;;;;;;;9.80;54.73;101466.91;5049693;27;101146;-75
2021/03/29 04:49:31;;;;;;;10.10;4.43;;;;;;;9.76;54.60;101463.47;5057902;27;97928;-75
2021/03/29 04:51:57;;;;;;;11.38;5.13;;;;;;;9.80;54.60;101464.28;5058652;27;97162;-75
2021/03/29 04:54:23;;;;;;;16.10;5.40;;;;;;;9.89;54.06;101466.78;5054621;27;96872;-75
2021/03/29 04:56:48;;;;;;;15.73;5.45;;;;;;;9.86;54.56;101457.22;5049950;27;101136;-75
2021/03/29 04:59:14;;;;;;;18.38;5.78;;;;;;;9.85;54.04;101462.47;5041102;27;100406;-80
2021/03/29 05:01:40;;;;;;;12.02;5.05;;;;;;;9.90;54.06;101469.41;5046917;27;96591;-75
2021/03/29 05:04:05;;;;;;;18.60;6.10;;;;;;;9.93;53.91;101469.38;5056657;27;96957;-75
2021/03/29 05:06:31;;;;;;;15.38;5.20;;;;;;;9.97;53.89;101475.44;5053667;27;101165;-75
2021/03/29 05:08:57;;;;;;;17.40;5.32;;;;;;;10.00;54.36;101482.41;5057086;27;97935;-75
2021/03/29 05:11:33;;;;;;;19.85;5.75;;;;;;;10.08;53.51;101484.03;5040569;27;97029;-75
2021/03/29 05:13:59;;;;;;;11.73;5.28;;;;;;;10.10;53.67;101489.28;5038928;27;96974;-75
2021/03/29 05:16:25;;;;;;;23.98;5.50;;;;;;;10.15;53.69;101492.69;5036210;27;101237;-75
2021/03/29 05:18:50;;;;;;;21.38;5.20;;;;;;;10.20;53.63;101494.34;5040340;27;99522;-75
2021/03/29 05:21:16;;;;;;;20.30;5.65;;;;;;;10.27;53.57;101489.03;5027191;27;96656;-81
2021/03/29 05:23:41;;;;;;;17.60;5.38;;;;;;;10.30;53.37;101489.91;5051007;27;97285;-75
2021/03/29 05:26:07;;;;;;;19.70;5.75;;;;;;;10.31;53.91;101491.63;5050242;27;101689;-75
2021/03/29 05:28:32;;;;;;;20.67;6.05;;;;;;;10.38;53.40;101492.38;5053330;27;100698;-75
2021/03/29 05:30:58;;;;;;;21.42;6.32;;;;;;;10.35;53.19;101495.91;5030179;27;97027;-74
2021/03/29 05:33:24;;;;;;;19.65;6.38;;;;;;;10.44;53.20;101492.28;5040300;27;96912;-75
2021/03/29 05:35:49;;;;;;;21.95;6.18;;;;;;;10.51;52.81;101501.84;5050631;27;98267;-75
2021/03/29 05:38:15;;;;;;;21.42;5.90;;;;;;;10.52;53.31;101498.31;5050624;27;97822;-80
2021/03/29 05:40:41;;;;;;;27.25;7.03;;;;;;;10.58;53.29;101502.59;5046647;27;96759;-75
2021/03/29 05:43:07;;;;;;;17.15;7.82;;;;;;;10.68;53.18;101508.59;5046712;27;97018;-74
2021/03/29 05:45:34;;;;;;;18.13;7.53;;;;;;;10.76;52.60;101507.59;5029617;27;101681;-76
2021/03/29 05:47:59;;;;;;;27.73;8.55;;;;;;;10.84;52.64;101512.69;5044915;27;100484;-75
2021/03/29 05:50:25;;;;;;;20.63;7.55;;;;;;;10.95;52.06;101510.75;5049894;27;97922;-75
2021/03/29 05:52:51;;;;;;;24.48;7.85;;;;;;;11.06;51.91;101514.09;5056588;27;96993;-74
2021/03/29 05:55:21;;;;;;;23.13;7.18;;;;;;;11.25;51.73;101508.50;5033735;27;101318;-80
2021/03/29 06:00:35;;;;;;;17.40;8.40;;;;;;;11.49;50.99;101512.41;5060526;27;96804;-77
2021/03/29 06:03:26;;;;;;;18.60;7.63;;;;;;;11.48;51.31;101521.22;5064210;27;96745;-75
2021/03/29 06:06:05;;;;;;;25.45;6.55;;;;;;;11.43;51.22;101518.69;5067626;27;101204;-75
2021/03/29 06:08:41;;;;;;;19.23;6.53;;;;;;;11.39;51.16;101526.66;5051363;27;101840;-75
2021/03/29 06:11:20;;;;;;;20.02;7.55;;;;;;;11.35;51.36;101512.69;5054111;27;97294;-74
2021/03/29 06:13:46;;;;;;;20.98;7.07;;;;;;;11.45;51.37;101503.72;5028992;27;96936;-75
2021/03/29 06:16:12;;;;;;;23.83;7.25;;;;;;;11.50;51.43;101522.06;5055863;27;101515;-77
2021/03/29 06:18:42;;;;;;;20.92;6.47;;;;;;;11.52;51.25;101515.88;5030009;27;101083;-75
2021/03/29 06:21:10;;;;;;;20.10;6.78;;;;;;;11.52;51.27;101521.16;5028812;27;97071;-75
2021/03/29 06:23:40;;;;;;;22.38;6.78;;;;;;;11.57;51.21;101518.41;5045078;27;96957;-75
2021/03/29 06:26:19;;;;;;;16.90;6.28;;;;;;;11.64;51.37;101519.19;5072687;27;97410;-75
2021/03/29 06:28:46;;;;;;;23.08;7.40;;;;;;;11.67;51.33;101508.59;5053198;27;101183;-75
2021/03/29 06:31:31;;;;;;;23.60;7.78;;;;;;;11.72;50.88;101517.25;5052054;27;97263;-75
2021/03/29 06:33:58;;;;;;;23.85;6.72;;;;;;;11.71;51.02;101521.63;5056044;27;96947;-75
2021/03/29 06:36:29;;;;;;;15.43;6.22;;;;;;;11.84;50.87;101506.50;5049805;27;101513;-75
2021/03/29 06:39:16;;;;;;;18.02;6.68;;;;;;;11.95;50.67;101522.94;5039503;27;101528;-74
2021/03/29 06:41:50;;;;;;;20.55;6.43;;;;;;;12.16;50.69;101524.28;5056835;27;97044;-75
2021/03/29 06:44:35;;;;;;;18.58;6.75;;;;;;;12.30;50.23;101525.72;5048209;27;96884;-81
2021/03/29 06:47:10;;;;;;;23.05;6.35;;;;;;;12.38;49.90;101527.28;5073510;27;98546;-74
2021/03/29 06:49:41;;;;;;;20.63;7.00;;;;;;;12.52;49.47;101524.34;5075830;27;98450;-74
2021/03/29 06:52:31;;;;;;;20.08;6.43;;;;;;;12.55;48.76;101518.16;5056546;27;98708;-74
2021/03/29 06:55:16;;;;;;;24.30;6.43;;;;;;;12.58;48.78;101521.56;5048332;27;97131;-75
2021/03/29 06:57:42;;;;;;;17.77;6.85;;;;;;;12.73;48.61;101516.84;5045443;27;101917;-74
2021/03/29 07:00:15;;;;;;;10.25;5.40;;;;;;;12.93;47.83;101511.09;5047253;27;101345;-74
2021/03/29 07:02:43;;;;;;;14.75;5.53;;;;;;;13.09;47.63;101517.72;5059176;27;96678;-75
2021/03/29 07:05:10;;;;;;;15.98;6.05;;;;;;;13.35;47.20;101515.28;5039112;27;96827;-76
2021/03/29 07:07:37;;;;;;;18.48;5.47;;;;;;;13.72;46.65;101519.53;5055059;27;101215;-75
2021/03/29 07:10:05;;;;;;;15.40;6.10;;;;;;;13.77;45.93;101522.06;5050120;27;97831;-76
2021/03/29 07:12:38;;;;;;;12.73;6.68;;;;;;;13.66;46.24;101524.13;5059062;27;97205;-75
2021/03/29 07:15:10;;;;;;;13.82;5.68;;;;;;;13.67;46.38;101528.50;5059744;27;96877;-75
2021/03/29 07:17:37;;;;;;;12.75;5.13;;;;;;;13.84;45.48;101523.59;5050814;27;98033;-75
2021/03/29 07:20:09;;;;;;;8.88;4.63;;;;;;;13.94;44.97;101525.09;5063698;27;101299;-75
2021/03/29 07:22:39;;;;;;;17.23;5.57;;;;;;;14.11;45.00;101521.97;5041661;27;97223;-75
2021/03/29 07:25:11;;;;;;;15.13;6.18;;;;;;;14.25;44.64;101519.78;5076683;27;96953;-76
2021/03/29 07:27:43;;;;;;;18.30;5.97;;;;;;;14.31;44.40;101518.72;5055585;27;101160;-76
2021/03/29 07:30:09;;;;;;;14.15;5.03;;;;;;;14.18;44.67;101515.56;5047775;27;101122;-76
2021/03/29 07:32:38;;;;;;;14.77;5.53;;;;;;;14.20;44.59;101518.19;5034543;27;97100;-76
2021/03/29 07:35:05;;;;;;;12.00;5.05;;;;;;;14.14;44.74;101527.16;5047793;27;97026;-76
2021/03/29 07:37:41;;;;;;;10.48;4.93;;;;;;;13.98;45.24;101528.50;5066143;27;100945;-77
2021/03/29 07:40:19;;;;;;;11.85;4.85;;;;;;;13.73;45.60;101537.13;5052139;27;99779;-81
2021/03/29 07:42:52;;;;;;;12.88;5.47;;;;;;;13.76;45.89;101531.75;5091083;27;96795;-77
2021/03/29 07:45:19;;;;;;;12.70;5.22;;;;;;;13.74;45.49;101533.56;5066356;27;97405;-80
2021/03/29 07:47:52;;;;;;;15.55;5.18;;;;;;;13.90;45.64;101541.91;5057510;27;98089;-76
2021/03/29 07:50:24;;;;;;;11.82;5.60;;;;;;;14.04;45.97;101537.09;5038401;27;101685;-82
2021/03/29 07:52:52;;;;;;;13.57;5.25;;;;;;;14.36;44.68;101537.91;5066568;27;96962;-77
2021/03/29 07:55:27;;;;;;;13.35;5.47;;;;;;;14.26;44.78;101534.69;5069453;27;97266;-81
2021/03/29 07:57:53;;;;;;;9.20;4.65;;;;;;;14.26;44.53;101542.63;5031565;27;101217;-78
2021/03/29 08:00:24;;;;;;;12.82;4.80;;;;;;;14.42;44.36;101537.72;5083707;27;98038;-81
2021/03/29 08:02:50;;;;;;;8.70;4.68;;;;;;;14.84;43.99;101545.25;5065912;27;97112;-77
2021/03/29 08:05:44;;;;;;;18.00;5.80;;;;;;;14.72;43.62;101548.31;5075840;27;97029;-77
2021/03/29 08:08:27;;;;;;;12.57;4.70;;;;;;;14.34;44.84;101547.69;5059253;27;97871;-77
2021/03/29 08:10:58;;;;;;;16.10;5.72;;;;;;;14.27;45.31;101548.75;5072271;27;101548;-77
2021/03/29 08:13:45;;;;;;;15.70;5.15;;;;;;;14.11;45.28;101552.75;5057807;27;96973;-76
2021/03/29 08:16:37;;;;;;;15.82;5.57;;;;;;;14.05;45.53;101551.19;5043927;27;96825;-76
2021/03/29 08:19:17;;;;;;;19.83;5.88;;;;;;;13.98;46.12;101553.13;5067988;27;97975;-76
2021/03/29 08:21:58;;;;;;;15.93;5.18;;;;;;;13.91;46.28;101559.50;5053166;27;100857;-77
2021/03/29 08:24:30;;;;;;;11.27;4.97;;;;;;;13.92;46.51;101563.00;5074560;27;96686;-76
2021/03/29 08:26:56;;;;;;;;;;;;;;;13.96;46.60;101569.91;5069679;27;97434;-80
2021/03/29 08:29:29;;;;;;;10.35;4.70;;;;;;;13.95;46.53;101569.03;5047470;27;98791;-76
2021/03/29 08:32:12;;;;;;;14.60;5.15;;;;;;;13.87;46.63;101565.75;5073483;27;98339;-76
2021/03/29 08:34:52;;;;;;;14.05;4.72;;;;;;;13.80;46.52;101569.47;5051009;27;97723;-77
2021/03/29 08:37:23;;;;;;;12.95;4.70;;;;;;;13.86;47.16;101579.00;5066978;27;97254;-75
2021/03/29 08:39:50;;;;;;;14.87;5.60;;;;;;;13.79;46.60;101583.59;5053499;27;98205;-78
2021/03/29 08:42:18;;;;;;;10.30;5.18;;;;;;;13.80;46.70;101583.53;5055973;27;100738;-79
2021/03/29 08:44:45;;;;;;;15.90;5.00;;;;;;;14.10;46.76;101585.34;5053673;27;97394;-76
2021/03/29 08:47:17;;;;;;;18.45;5.43;;;;;;;14.52;46.57;101585.06;5047514;27;97411;-79
2021/03/29 08:49:44;;;;;;;11.88;5.32;;;;;;;14.61;45.82;101588.28;5060874;27;97734;-77
2021/03/29 08:52:10;;;;;;;14.48;4.90;;;;;;;14.55;45.82;101584.97;5067941;27;98060;-76
2021/03/29 08:54:49;;;;;;;12.35;5.30;;;;;;;14.73;45.40;101587.03;5032837;27;97331;-76
2021/03/29 08:57:15;;;;;;;13.90;5.20;;;;;;;14.95;45.67;101587.19;5064480;27;96716;-76
2021/03/29 08:59:41;;;;;;;14.98;5.88;;;;;;;15.09;45.57;101584.09;5049193;27;100858;-78
2021/03/29 09:02:16;;;;;;;14.85;5.60;;;;;;;15.20;44.75;101589.06;5068616;27;101058;-76
2021/03/29 09:04:56;;;;;;;14.05;4.60;;;;;;;15.30;44.49;101594.00;5032189;27;97387;-78
2021/03/29 09:07:36;;;;;;;14.05;4.45;;;;;;;15.37;44.30;101592.00;5034923;27;97327;-75
2021/03/29 09:10:13;;;;;;;10.20;4.63;;;;;;;15.88;44.35;101588.47;5026755;27;101617;-78
2021/03/29 09:12:39;;;;;;;18.05;5.00;;;;;;;15.99;43.79;101582.78;5081556;27;97529;-75
2021/03/29 09:15:12;;;;;;;10.95;4.18;;;;;;;16.15;43.47;101577.81;5034913;27;97422;-75
2021/03/29 09:17:38;;;;;;;14.38;4.88;;;;;;;16.37;43.40;101576.03;5048202;27;96861;-76
2021/03/29 09:20:04;;;;;;;9.15;4.40;;;;;;;16.42;42.88;101583.84;5079624;27;98036;-76
2021/03/29 09:22:34;;;;;;;10.02;3.85;;;;;;;16.50;42.49;101587.06;5044997;27;101237;-77
2021/03/29 09:25:02;;;;;;;8.35;4.38;;;;;;;16.61;42.19;101584.84;5049675;27;97028;-76
2021/03/29 09:27:33;;;;;;;15.65;4.75;;;;;;;16.61;42.84;101594.56;5032507;27;97396;-76
2021/03/29 09:30:00;;;;;;;14.90;4.30;;;;;;;16.41;43.35;101590.94;5070822;27;97937;-76
2021/03/29 09:32:30;;;;;;;12.23;4.22;;;;;;;16.14;43.40;101599.91;5031795;27;101398;-77
2021/03/29 09:34:56;;;;;;;11.80;3.88;;;;;;;16.27;43.33;101595.88;5035816;27;98846;-76
2021/03/29 09:37:24;;;;;;;9.05;3.50;;;;;;;16.42;43.21;101592.63;5020832;27;97562;-76
2021/03/29 09:40:19;;;;;;;9.75;4.68;;;;;;;16.54;43.42;101593.94;5063397;27;97984;-76
2021/03/29 09:42:50;;;;;;;12.43;4.65;;;;;;;16.52;43.07;101601.09;5023083;27;101662;-76
2021/03/29 09:45:22;;;;;;;12.20;4.40;;;;;;;16.68;42.92;101604.03;5036389;27;97550;-79
2021/03/29 09:48:06;;;;;;;14.65;4.18;;;;;;;16.36;43.67;101615.88;5070726;27;97026;-77
2021/03/29 09:50:35;;;;;;;13.15;3.92;;;;;;;16.37;43.59;101610.50;5070595;27;98555;-76
2021/03/29 09:53:32;;;;;;;11.23;3.58;;;;;;;16.45;43.39;101602.25;5048799;27;97445;-76
2021/03/29 09:56:01;;;;;;;9.60;4.00;;;;;;;16.32;43.64;101604.53;5041016;27;97249;-75
2021/03/29 09:58:44;;;;;;;9.80;4.25;;;;;;;16.48;43.84;101603.00;5049396;27;97358;-78
2021/03/29 10:01:17;;;;;;;12.85;4.38;;;;;;;16.57;43.37;101593.84;5058475;27;98144;-75
2021/03/29 10:04:12;;;;;;;10.57;3.85;;;;;;;16.62;43.29;101602.47;5023982;27;98016;-75
2021/03/29 10:06:52;;;;;;;14.25;3.20;;;;;;;16.33;43.33;101605.38;5043612;27;97452;-77
2021/03/29 10:09:34;;;;;;;10.15;3.30;;;;;;;16.01;43.97;101605.66;5053578;27;96927;-76
2021/03/29 10:12:01;;;;;;;10.43;3.92;;;;;;;15.67;44.69;101605.94;5067953;27;98156;-75
2021/03/29 10:14:45;;;;;;;7.35;2.90;;;;;;;15.64;44.66;101614.00;5065159;27;98158;-76
2021/03/29 10:17:20;;;;;;;12.57;3.55;;;;;;;15.49;45.74;101609.22;5046239;27;97291;-76
2021/03/29 10:19:46;;;;;;;10.15;3.47;;;;;;;15.39;46.64;101617.50;5041445;27;97378;-75
2021/03/29 10:22:16;;;;;;;9.93;3.10;;;;;;;15.43;47.19;101607.66;5022464;27;101126;-78
2021/03/29 10:25:07;;;;;;;8.88;3.60;;;;;;;15.10;47.76;101615.81;5034738;27;99911;-78
2021/03/29 10:27:44;;;;;;;12.95;4.65;;;;;;;15.05;48.88;101609.78;5060799;27;97050;-76
2021/03/29 10:30:11;;;;;;;12.32;3.92;;;;;;;15.13;48.91;101614.84;5068805;27;97285;-82
2021/03/29 10:32:37;;;;;;;11.57;4.28;;;;;;;15.20;49.01;101608.44;5051722;27;101491;-76
2021/03/29 10:35:04;;;;;;;10.23;4.45;;;;;;;15.12;49.44;101607.81;5047816;27;100862;-76
2021/03/29 10:37:31;;;;;;;9.68;4.03;;;;;;;15.29;48.78;101602.81;5053983;27;96911;-75
2021/03/29 10:39:58;;;;;;;12.43;4.22;;;;;;;15.35;49.36;101607.03;5031018;27;97150;-76
2021/03/29 10:42:26;;;;;;;13.85;4.30;;;;;;;15.51;49.20;101602.13;5043723;27;101778;-76
2021/03/29 10:44:53;;;;;;;13.02;4.13;;;;;;;15.44;48.39;101604.09;5054914;27;97663;-75
2021/03/29 10:47:19;;;;;;;11.10;4.47;;;;;;;15.64;48.25;101603.41;5051527;27;97520;-76
2021/03/29 10:49:44;;;;;;;12.18;4.10;;;;;;;15.47;48.13;101600.47;5038433;27;97602;-78
2021/03/29 10:52:10;;;;;;;9.43;3.95;;;;;;;15.50;48.01;101595.94;5045173;27;100575;-75
2021/03/29 10:54:36;;;;;;;12.02;4.18;;;;;;;15.40;48.50;101592.75;5034225;27;101140;-76
2021/03/29 10:57:02;;;;;;;11.43;3.85;;;;;;;15.42;49.20;101586.53;5048010;27;97263;-78
2021/03/29 10:59:28;;;;;;;13.55;5.15;;;;;;;15.30;48.47;101596.63;5056370;27;96915;-77
2021/03/29 11:01:54;;;;;;;9.15;3.75;;;;;;;15.30;49.01;101594.00;5069766;27;99099;-76
2021/03/29 11:04:19;;;;;;;8.93;3.70;;;;;;;15.54;49.10;101599.38;5045633;27;101658;-80
2021/03/29 11:06:45;;;;;;;10.00;3.88;;;;;;;15.77;48.46;101593.31;5063631;27;97355;-76
2021/03/29 11:09:11;;;;;;;14.15;4.60;;;;;;;15.76;48.82;101594.19;5051198;27;96970;-82
2021/03/29 11:11:36;;;;;;;9.52;4.18;;;;;;;15.56;48.55;101593.09;5052003;27;98607;-75
2021/03/29 11:14:02;;;;;;;13.30;4.03;;;;;;;15.61;48.95;101595.56;5044569;27;99262;-79
2021/03/29 11:16:29;;;;;;;11.88;4.35;;;;;;;15.42;48.52;101594.47;5032638;27;96908;-75
2021/03/29 11:18:54;;;;;;;10.90;4.30;;;;;;;15.42;48.47;101594.47;5065182;27;96819;-74
2021/03/29 11:21:20;;;;;;;14.88;4.95;;;;;;;15.37;49.12;101592.00;5067662;27;100830;-77
2021/03/29 11:23:46;;;;;;;12.57;4.13;;;;;;;15.39;49.13;101601.63;5051912;27;100936;-73
2021/03/29 11:26:12;;;;;;;12.93;4.78;;;;;;;15.46;48.92;101598.75;5050165;27;97499;-79
2021/03/29 11:28:38;;;;;;;13.70;5.30;;;;;;;15.58;49.20;101591.25;5042099;27;96848;-74
2021/03/29 11:31:04;;;;;;;14.32;4.82;;;;;;;15.76;49.60;101594.19;5047994;27;98121;-75
2021/03/29 11:33:29;;;;;;;18.25;6.18;;;;;;;15.80;49.31;101588.75;5038313;27;100975;-74